Time;durP1;ratioP1;P1;durP2;ratioP2;P2;SDS_P1;SDS_P2;PMS_P1;PMS_P2;Temp;Humidity;BMP_temperature;BMP_pressure;BME280_temperature;BME280_humidity;BME280_pressure;Samples;Min_cycle;Max_cycle;Signal;HPM_P1;HPM_P2
2020/10/30 00:00:42;;;;;;;7.4;4.149999;;;;;;;8.96;100;95818.67;;;;
2020/10/30 00:01:42;;;;;;;7.4;4.149999;;;;;;;8.96;100;95818.67;;;;
2020/10/30 00:02:46;;;;;;;7.4;4.149999;;;;;;;8.96;100;95818.67;;;;
2020/10/30 00:03:52;;;;;;;7.4;4.149999;;;;;;;8.96;100;95818.67;;;;
2020/10/30 00:04:53;;;;;;;7.4;4.149999;;;;;;;8.96;100;95818.67;;;;
2020/10/30 00:05:59;;;;;;;7.4;4.149999;;;;;;;8.96;100;95818.67;;;;
2020/10/30 00:07:00;;;;;;;7.4;4.149999;;;;;;;8.96;100;95818.67;;;;
2020/10/30 00:08:04;;;;;;;7.4;4.149999;;;;;;;8.96;100;95818.67;;;;
2020/10/30 00:09:07;;;;;;;7.4;4.149999;;;;;;;8.96;100;95818.67;;;;
2020/10/30 00:10:11;;;;;;;7.4;4.149999;;;;;;;8.96;100;95818.67;;;;
2020/10/30 00:11:11;;;;;;;5;4.400001;;;;;;;8.96;100;95819.51;;;;
2020/10/30 00:12:12;;;;;;;5;4.400001;;;;;;;8.96;100;95819.51;;;;
2020/10/30 00:13:13;;;;;;;5;4.400001;;;;;;;8.96;100;95819.51;;;;
2020/10/30 00:14:14;;;;;;;5;4.400001;;;;;;;8.96;100;95819.51;;;;
2020/10/30 00:15:14;;;;;;;5;4.400001;;;;;;;8.96;100;95819.51;;;;
2020/10/30 00:16:15;;;;;;;5;4.400001;;;;;;;8.96;100;95819.51;;;;
2020/10/30 00:17:15;;;;;;;5;4.400001;;;;;;;8.96;100;95819.51;;;;
2020/10/30 00:18:16;;;;;;;5;4.400001;;;;;;;8.96;100;95819.51;;;;
2020/10/30 00:19:16;;;;;;;5;4.400001;;;;;;;8.96;100;95819.51;;;;
2020/10/30 00:20:17;;;;;;;5;4.400001;;;;;;;8.96;100;95819.51;;;;
2020/10/30 00:21:17;;;;;;;5;4.400001;;;;;;;8.96;100;95819.51;;;;
2020/10/30 00:22:19;;;;;;;4.4;4;;;;;;;9.03;100;95806.97;;;;
2020/10/30 00:23:19;;;;;;;4.4;4;;;;;;;9.03;100;95806.97;;;;
2020/10/30 00:24:19;;;;;;;4.4;4;;;;;;;9.03;100;95806.97;;;;
2020/10/30 00:25:20;;;;;;;4.4;4;;;;;;;9.03;100;95806.97;;;;
2020/10/30 00:26:21;;;;;;;4.4;4;;;;;;;9.03;100;95806.97;;;;
2020/10/30 00:27:21;;;;;;;4.4;4;;;;;;;9.03;100;95806.97;;;;
2020/10/30 00:28:22;;;;;;;4.4;4;;;;;;;9.03;100;95806.97;;;;
2020/10/30 00:29:22;;;;;;;4.4;4;;;;;;;9.03;100;95806.97;;;;
2020/10/30 00:30:23;;;;;;;4.4;4;;;;;;;9.03;100;95806.97;;;;
2020/10/30 00:31:23;;;;;;;4.4;4;;;;;;;9.03;100;95806.97;;;;
2020/10/30 00:32:24;;;;;;;4.15;3.55;;;;;;;9.03;100;95806.55;;;;
2020/10/30 00:33:24;;;;;;;4.15;3.55;;;;;;;9.03;100;95806.55;;;;
2020/10/30 00:34:27;;;;;;;4.15;3.55;;;;;;;9.03;100;95806.55;;;;
2020/10/30 00:35:28;;;;;;;4.15;3.55;;;;;;;9.03;100;95806.55;;;;
2020/10/30 00:36:28;;;;;;;4.15;3.55;;;;;;;9.03;100;95806.55;;;;
2020/10/30 00:37:33;;;;;;;4.15;3.55;;;;;;;9.03;100;95806.55;;;;
2020/10/30 00:38:54;;;;;;;4.15;3.55;;;;;;;9.03;100;95806.55;;;;
2020/10/30 00:40:09;;;;;;;4.15;3.55;;;;;;;9.03;100;95806.55;;;;
2020/10/30 00:41:31;;;;;;;4.15;3.55;;;;;;;9.03;100;95806.55;;;;
2020/10/30 00:42:53;;;;;;;4.15;3.55;;;;;;;9.03;100;95806.55;;;;
2020/10/30 00:49:44;;;;;;;4.399999;3.9;;;;;;;9.09;100;95807.86;;;;
2020/10/30 00:51:09;;;;;;;4.399999;3.9;;;;;;;9.09;100;95807.86;;;;
2020/10/30 00:52:34;;;;;;;4.399999;3.9;;;;;;;9.09;100;95807.86;;;;
2020/10/30 00:53:47;;;;;;;4.199999;3.8;;;;;;;9.11;100;95808.98;;;;
2020/10/30 00:54:48;;;;;;;4.199999;3.8;;;;;;;9.11;100;95808.98;;;;
2020/10/30 00:55:49;;;;;;;4.199999;3.8;;;;;;;9.11;100;95808.98;;;;
2020/10/30 00:56:50;;;;;;;4.199999;3.8;;;;;;;9.11;100;95808.98;;;;
2020/10/30 00:58:03;;;;;;;4.199999;3.8;;;;;;;9.11;100;95808.98;;;;
2020/10/30 00:59:25;;;;;;;4.199999;3.8;;;;;;;9.11;100;95808.98;;;;
2020/10/30 01:00:35;;;;;;;4.199999;3.8;;;;;;;9.11;100;95808.98;;;;
2020/10/30 01:01:39;;;;;;;4.199999;3.8;;;;;;;9.11;100;95808.98;;;;
2020/10/30 01:02:44;;;;;;;4.199999;3.8;;;;;;;9.11;100;95808.98;;;;
2020/10/30 01:03:57;;;;;;;4.199999;3.8;;;;;;;9.11;100;95808.98;;;;
2020/10/30 01:05:01;;;;;;;4.9;3.8;;;;;;;9.18;100;95806.99;;;;
2020/10/30 01:06:04;;;;;;;4.9;3.8;;;;;;;9.18;100;95806.99;;;;
2020/10/30 01:07:05;;;;;;;4.9;3.8;;;;;;;9.18;100;95806.99;;;;
2020/10/30 01:08:14;;;;;;;4.9;3.8;;;;;;;9.18;100;95806.99;;;;
2020/10/30 01:09:17;;;;;;;4.9;3.8;;;;;;;9.18;100;95806.99;;;;
2020/10/30 01:10:18;;;;;;;4.9;3.8;;;;;;;9.18;100;95806.99;;;;
2020/10/30 01:11:19;;;;;;;4.9;3.8;;;;;;;9.18;100;95806.99;;;;
2020/10/30 01:12:22;;;;;;;4.9;3.8;;;;;;;9.18;100;95806.99;;;;
2020/10/30 01:13:23;;;;;;;4.9;3.8;;;;;;;9.18;100;95806.99;;;;
2020/10/30 01:14:26;;;;;;;4.9;3.8;;;;;;;9.18;100;95806.99;;;;
2020/10/30 01:15:26;;;;;;;4.45;3.25;;;;;;;9.23;100;95814.84;;;;
2020/10/30 01:16:27;;;;;;;4.45;3.25;;;;;;;9.23;100;95814.84;;;;
2020/10/30 01:17:27;;;;;;;4.45;3.25;;;;;;;9.23;100;95814.84;;;;
2020/10/30 01:18:28;;;;;;;4.45;3.25;;;;;;;9.23;100;95814.84;;;;
2020/10/30 01:19:29;;;;;;;4.45;3.25;;;;;;;9.23;100;95814.84;;;;
2020/10/30 01:20:29;;;;;;;4.45;3.25;;;;;;;9.23;100;95814.84;;;;
2020/10/30 01:21:30;;;;;;;4.45;3.25;;;;;;;9.23;100;95814.84;;;;
2020/10/30 01:22:30;;;;;;;4.45;3.25;;;;;;;9.23;100;95814.84;;;;
2020/10/30 01:23:31;;;;;;;4.45;3.25;;;;;;;9.23;100;95814.84;;;;
2020/10/30 01:24:32;;;;;;;4.45;3.25;;;;;;;9.23;100;95814.84;;;;
2020/10/30 01:25:32;;;;;;;4.5;3.15;;;;;;;9.35;100;95805.05;;;;
2020/10/30 01:26:33;;;;;;;4.5;3.15;;;;;;;9.35;100;95805.05;;;;
2020/10/30 01:27:33;;;;;;;4.5;3.15;;;;;;;9.35;100;95805.05;;;;
2020/10/30 01:28:34;;;;;;;4.5;3.15;;;;;;;9.35;100;95805.05;;;;
2020/10/30 01:29:34;;;;;;;4.5;3.15;;;;;;;9.35;100;95805.05;;;;
2020/10/30 01:30:35;;;;;;;4.5;3.15;;;;;;;9.35;100;95805.05;;;;
2020/10/30 01:31:35;;;;;;;4.5;3.15;;;;;;;9.35;100;95805.05;;;;
2020/10/30 01:32:36;;;;;;;4.5;3.15;;;;;;;9.35;100;95805.05;;;;
2020/10/30 01:33:36;;;;;;;4.5;3.15;;;;;;;9.35;100;95805.05;;;;
2020/10/30 01:34:37;;;;;;;4.5;3.15;;;;;;;9.35;100;95805.05;;;;
2020/10/30 01:35:38;;;;;;;4.5;3.15;;;;;;;9.35;100;95805.05;;;;
2020/10/30 01:36:38;;;;;;;3.55;3;;;;;;;9.38;100;95799.73;;;;
2020/10/30 01:37:39;;;;;;;3.55;3;;;;;;;9.38;100;95799.73;;;;
2020/10/30 01:38:39;;;;;;;3.55;3;;;;;;;9.38;100;95799.73;;;;
2020/10/30 01:39:40;;;;;;;3.55;3;;;;;;;9.38;100;95799.73;;;;
2020/10/30 01:40:40;;;;;;;3.55;3;;;;;;;9.38;100;95799.73;;;;
2020/10/30 01:41:41;;;;;;;3.55;3;;;;;;;9.38;100;95799.73;;;;
2020/10/30 01:42:41;;;;;;;3.55;3;;;;;;;9.38;100;95799.73;;;;
2020/10/30 01:43:42;;;;;;;3.55;3;;;;;;;9.38;100;95799.73;;;;
2020/10/30 01:44:42;;;;;;;3.55;3;;;;;;;9.38;100;95799.73;;;;
2020/10/30 01:45:43;;;;;;;3.55;3;;;;;;;9.38;100;95799.73;;;;
2020/10/30 01:46:43;;;;;;;3.55;3;;;;;;;9.38;100;95799.73;;;;
2020/10/30 01:47:44;;;;;;;3.3;2.95;;;;;;;9.45;100;95785.19;;;;
2020/10/30 01:48:44;;;;;;;3.3;2.95;;;;;;;9.45;100;95785.19;;;;
2020/10/30 01:49:45;;;;;;;3.3;2.95;;;;;;;9.45;100;95785.19;;;;
2020/10/30 01:50:46;;;;;;;3.3;2.95;;;;;;;9.45;100;95785.19;;;;
2020/10/30 01:51:47;;;;;;;3.3;2.95;;;;;;;9.45;100;95785.19;;;;
2020/10/30 01:52:50;;;;;;;3.3;2.95;;;;;;;9.45;100;95785.19;;;;
2020/10/30 01:53:51;;;;;;;3.3;2.95;;;;;;;9.45;100;95785.19;;;;
2020/10/30 01:54:53;;;;;;;3.3;2.95;;;;;;;9.45;100;95785.19;;;;
2020/10/30 01:55:53;;;;;;;3.3;2.95;;;;;;;9.45;100;95785.19;;;;
2020/10/30 01:56:54;;;;;;;3.3;2.95;;;;;;;9.45;100;95785.19;;;;
2020/10/30 01:57:55;;;;;;;4;2.5;;;;;;;9.44;100;95773.16;;;;
2020/10/30 01:58:55;;;;;;;4;2.5;;;;;;;9.44;100;95773.16;;;;
2020/10/30 01:59:56;;;;;;;4;2.5;;;;;;;9.44;100;95773.16;;;;
2020/10/30 02:01:05;;;;;;;4;2.5;;;;;;;9.44;100;95773.16;;;;
2020/10/30 02:02:17;;;;;;;4;2.5;;;;;;;9.44;100;95773.16;;;;
2020/10/30 02:03:32;;;;;;;4;2.5;;;;;;;9.44;100;95773.16;;;;
2020/10/30 02:04:47;;;;;;;4;2.5;;;;;;;9.44;100;95773.16;;;;
2020/10/30 02:06:34;;;;;;;4;2.5;;;;;;;9.44;100;95773.16;;;;
2020/10/30 02:07:42;;;;;;;4;2.5;;;;;;;9.44;100;95773.16;;;;
2020/10/30 02:08:46;;;;;;;3.85;2.6;;;;;;;9.49;100;95772.09;;;;
2020/10/30 02:09:51;;;;;;;3.85;2.6;;;;;;;9.49;100;95772.09;;;;
2020/10/30 02:11:09;;;;;;;3.85;2.6;;;;;;;9.49;100;95772.09;;;;
2020/10/30 02:12:16;;;;;;;3.85;2.6;;;;;;;9.49;100;95772.09;;;;
2020/10/30 02:13:32;;;;;;;3.85;2.6;;;;;;;9.49;100;95772.09;;;;
2020/10/30 02:15:50;;;;;;;3.85;2.6;;;;;;;9.49;100;95772.09;;;;
2020/10/30 02:16:56;;;;;;;3.85;2.6;;;;;;;9.49;100;95772.09;;;;
2020/10/30 02:17:59;;;;;;;3.85;2.6;;;;;;;9.49;100;95772.09;;;;
2020/10/30 02:19:00;;;;;;;3.15;2.4;;;;;;;9.47;100;95758.42;;;;
2020/10/30 02:20:04;;;;;;;3.15;2.4;;;;;;;9.47;100;95758.42;;;;
2020/10/30 02:21:05;;;;;;;3.15;2.4;;;;;;;9.47;100;95758.42;;;;
2020/10/30 02:22:06;;;;;;;3.15;2.4;;;;;;;9.47;100;95758.42;;;;
2020/10/30 02:23:07;;;;;;;3.15;2.4;;;;;;;9.47;100;95758.42;;;;
2020/10/30 02:24:07;;;;;;;3.15;2.4;;;;;;;9.47;100;95758.42;;;;
2020/10/30 02:25:08;;;;;;;3.15;2.4;;;;;;;9.47;100;95758.42;;;;
2020/10/30 02:26:10;;;;;;;3.15;2.4;;;;;;;9.47;100;95758.42;;;;
2020/10/30 02:27:16;;;;;;;3.15;2.4;;;;;;;9.47;100;95758.42;;;;
2020/10/30 02:28:17;;;;;;;3.15;2.4;;;;;;;9.47;100;95758.42;;;;
2020/10/30 02:29:17;;;;;;;3.15;2.4;;;;;;;9.47;100;95758.42;;;;
2020/10/30 02:30:25;;;;;;;3.9;2.2;;;;;;;9.46;100;95758.52;;;;
2020/10/30 02:31:27;;;;;;;3.9;2.2;;;;;;;9.46;100;95758.52;;;;
2020/10/30 02:32:27;;;;;;;3.9;2.2;;;;;;;9.46;100;95758.52;;;;
2020/10/30 02:33:33;;;;;;;3.9;2.2;;;;;;;9.46;100;95758.52;;;;
2020/10/30 02:34:34;;;;;;;3.9;2.2;;;;;;;9.46;100;95758.52;;;;
2020/10/30 02:35:42;;;;;;;3.9;2.2;;;;;;;9.46;100;95758.52;;;;
2020/10/30 02:36:45;;;;;;;3.9;2.2;;;;;;;9.46;100;95758.52;;;;
2020/10/30 02:37:46;;;;;;;3.9;2.2;;;;;;;9.46;100;95758.52;;;;
2020/10/30 02:38:46;;;;;;;3.9;2.2;;;;;;;9.46;100;95758.52;;;;
2020/10/30 02:39:47;;;;;;;3.9;2.2;;;;;;;9.46;100;95758.52;;;;
2020/10/30 02:40:47;;;;;;;2.1;1.9;;;;;;;9.49;100;95764.43;;;;
2020/10/30 02:41:48;;;;;;;2.1;1.9;;;;;;;9.49;100;95764.43;;;;
2020/10/30 02:42:48;;;;;;;2.1;1.9;;;;;;;9.49;100;95764.43;;;;
2020/10/30 02:43:49;;;;;;;2.1;1.9;;;;;;;9.49;100;95764.43;;;;
2020/10/30 02:44:49;;;;;;;2.1;1.9;;;;;;;9.49;100;95764.43;;;;
2020/10/30 02:45:50;;;;;;;2.1;1.9;;;;;;;9.49;100;95764.43;;;;
2020/10/30 02:46:50;;;;;;;2.1;1.9;;;;;;;9.49;100;95764.43;;;;
2020/10/30 02:47:51;;;;;;;2.1;1.9;;;;;;;9.49;100;95764.43;;;;
2020/10/30 02:48:52;;;;;;;2.1;1.9;;;;;;;9.49;100;95764.43;;;;
2020/10/30 02:49:52;;;;;;;2.1;1.9;;;;;;;9.49;100;95764.43;;;;
2020/10/30 02:50:53;;;;;;;3.3;1.85;;;;;;;9.58;100;95765.41;;;;
2020/10/30 02:51:54;;;;;;;3.3;1.85;;;;;;;9.58;100;95765.41;;;;
2020/10/30 02:52:56;;;;;;;3.3;1.85;;;;;;;9.58;100;95765.41;;;;
2020/10/30 02:54:04;;;;;;;3.3;1.85;;;;;;;9.58;100;95765.41;;;;
2020/10/30 02:55:05;;;;;;;3.3;1.85;;;;;;;9.58;100;95765.41;;;;
2020/10/30 02:56:05;;;;;;;3.3;1.85;;;;;;;9.58;100;95765.41;;;;
2020/10/30 02:57:06;;;;;;;3.3;1.85;;;;;;;9.58;100;95765.41;;;;
2020/10/30 02:58:06;;;;;;;3.3;1.85;;;;;;;9.58;100;95765.41;;;;
2020/10/30 02:59:07;;;;;;;3.3;1.85;;;;;;;9.58;100;95765.41;;;;
2020/10/30 03:00:07;;;;;;;3.3;1.85;;;;;;;9.58;100;95765.41;;;;
2020/10/30 03:01:08;;;;;;;3.3;1.85;;;;;;;9.58;100;95765.41;;;;
2020/10/30 03:02:08;;;;;;;1.8;1.6;;;;;;;9.6;100;95770.99;;;;
2020/10/30 03:03:09;;;;;;;1.8;1.6;;;;;;;9.6;100;95770.99;;;;
2020/10/30 03:04:10;;;;;;;1.8;1.6;;;;;;;9.6;100;95770.99;;;;
2020/10/30 03:05:10;;;;;;;1.8;1.6;;;;;;;9.6;100;95770.99;;;;
2020/10/30 03:06:11;;;;;;;1.8;1.6;;;;;;;9.6;100;95770.99;;;;
2020/10/30 03:07:12;;;;;;;1.8;1.6;;;;;;;9.6;100;95770.99;;;;
2020/10/30 03:08:12;;;;;;;1.8;1.6;;;;;;;9.6;100;95770.99;;;;
2020/10/30 03:09:14;;;;;;;1.8;1.6;;;;;;;9.6;100;95770.99;;;;
2020/10/30 03:10:15;;;;;;;1.8;1.6;;;;;;;9.6;100;95770.99;;;;
2020/10/30 03:11:15;;;;;;;1.8;1.6;;;;;;;9.6;100;95770.99;;;;
2020/10/30 03:12:16;;;;;;;2.4;1.5;;;;;;;9.67;100;95760.47;;;;
2020/10/30 03:13:16;;;;;;;2.4;1.5;;;;;;;9.67;100;95760.47;;;;
2020/10/30 03:14:17;;;;;;;2.4;1.5;;;;;;;9.67;100;95760.47;;;;
2020/10/30 03:15:17;;;;;;;2.4;1.5;;;;;;;9.67;100;95760.47;;;;
2020/10/30 03:16:18;;;;;;;2.4;1.5;;;;;;;9.67;100;95760.47;;;;
2020/10/30 03:17:19;;;;;;;2.4;1.5;;;;;;;9.67;100;95760.47;;;;
2020/10/30 03:18:19;;;;;;;2.4;1.5;;;;;;;9.67;100;95760.47;;;;
2020/10/30 03:19:20;;;;;;;2.4;1.5;;;;;;;9.67;100;95760.47;;;;
2020/10/30 03:20:20;;;;;;;2.4;1.5;;;;;;;9.67;100;95760.47;;;;
2020/10/30 03:21:21;;;;;;;2.4;1.5;;;;;;;9.67;100;95760.47;;;;
2020/10/30 03:23:31;;;;;;;2.4;1.5;;;;;;;9.67;100;95760.47;;;;
2020/10/30 03:24:31;;;;;;;1.8;1.6;;;;;;;9.69;100;95763.78;;;;
2020/10/30 03:25:39;;;;;;;1.8;1.6;;;;;;;9.69;100;95763.78;;;;
2020/10/30 03:26:44;;;;;;;1.8;1.6;;;;;;;9.69;100;95763.78;;;;
2020/10/30 03:27:44;;;;;;;1.8;1.6;;;;;;;9.69;100;95763.78;;;;
2020/10/30 03:28:45;;;;;;;1.8;1.6;;;;;;;9.69;100;95763.78;;;;
2020/10/30 03:29:46;;;;;;;1.8;1.6;;;;;;;9.69;100;95763.78;;;;
2020/10/30 03:30:47;;;;;;;1.8;1.6;;;;;;;9.69;100;95763.78;;;;
2020/10/30 03:31:47;;;;;;;1.8;1.6;;;;;;;9.69;100;95763.78;;;;
2020/10/30 03:32:48;;;;;;;1.8;1.6;;;;;;;9.69;100;95763.78;;;;
2020/10/30 03:33:48;;;;;;;1.95;1.6;;;;;;;9.76;100;95784.78;;;;
2020/10/30 03:34:49;;;;;;;1.95;1.6;;;;;;;9.76;100;95784.78;;;;
2020/10/30 03:35:49;;;;;;;1.95;1.6;;;;;;;9.76;100;95784.78;;;;
2020/10/30 03:36:50;;;;;;;1.95;1.6;;;;;;;9.76;100;95784.78;;;;
2020/10/30 03:37:50;;;;;;;1.95;1.6;;;;;;;9.76;100;95784.78;;;;
2020/10/30 03:38:51;;;;;;;1.95;1.6;;;;;;;9.76;100;95784.78;;;;
2020/10/30 03:39:52;;;;;;;1.95;1.6;;;;;;;9.76;100;95784.78;;;;
2020/10/30 03:40:52;;;;;;;1.95;1.6;;;;;;;9.76;100;95784.78;;;;
2020/10/30 03:41:53;;;;;;;1.95;1.6;;;;;;;9.76;100;95784.78;;;;
2020/10/30 03:42:53;;;;;;;1.95;1.6;;;;;;;9.76;100;95784.78;;;;
2020/10/30 03:43:54;;;;;;;1.95;1.6;;;;;;;9.76;100;95784.78;;;;
2020/10/30 03:44:55;;;;;;;3.65;1.5;;;;;;;9.78;100;95789.85;;;;
2020/10/30 03:45:55;;;;;;;3.65;1.5;;;;;;;9.78;100;95789.85;;;;
2020/10/30 03:46:56;;;;;;;3.65;1.5;;;;;;;9.78;100;95789.85;;;;
2020/10/30 03:47:56;;;;;;;3.65;1.5;;;;;;;9.78;100;95789.85;;;;
2020/10/30 03:48:57;;;;;;;3.65;1.5;;;;;;;9.78;100;95789.85;;;;
2020/10/30 03:49:58;;;;;;;3.65;1.5;;;;;;;9.78;100;95789.85;;;;
2020/10/30 03:50:58;;;;;;;3.65;1.5;;;;;;;9.78;100;95789.85;;;;
2020/10/30 03:52:02;;;;;;;3.65;1.5;;;;;;;9.78;100;95789.85;;;;
2020/10/30 03:53:05;;;;;;;3.65;1.5;;;;;;;9.78;100;95789.85;;;;
2020/10/30 03:54:05;;;;;;;3.65;1.5;;;;;;;9.78;100;95789.85;;;;
2020/10/30 03:55:06;;;;;;;2.4;1.5;;;;;;;9.77;100;95799.1;;;;
2020/10/30 03:56:06;;;;;;;2.4;1.5;;;;;;;9.77;100;95799.1;;;;
2020/10/30 03:57:11;;;;;;;2.4;1.5;;;;;;;9.77;100;95799.1;;;;
2020/10/30 03:58:16;;;;;;;2.4;1.5;;;;;;;9.77;100;95799.1;;;;
2020/10/30 03:59:25;;;;;;;2.4;1.5;;;;;;;9.77;100;95799.1;;;;
2020/10/30 04:00:47;;;;;;;2.4;1.5;;;;;;;9.77;100;95799.1;;;;
2020/10/30 04:07:00;;;;;;;1.45;1.3;;;;;;;9.81;100;95819.17;;;;
2020/10/30 04:08:01;;;;;;;1.45;1.3;;;;;;;9.81;100;95819.17;;;;
2020/10/30 04:09:01;;;;;;;1.45;1.3;;;;;;;9.81;100;95819.17;;;;
2020/10/30 04:10:02;;;;;;;1.45;1.3;;;;;;;9.81;100;95819.17;;;;
2020/10/30 04:11:05;;;;;;;1.45;1.3;;;;;;;9.81;100;95819.17;;;;
2020/10/30 04:12:09;;;;;;;1.45;1.3;;;;;;;9.81;100;95819.17;;;;
2020/10/30 04:13:15;;;;;;;1.45;1.3;;;;;;;9.81;100;95819.17;;;;
2020/10/30 04:14:21;;;;;;;1.45;1.3;;;;;;;9.81;100;95819.17;;;;
2020/10/30 04:15:25;;;;;;;1.45;1.3;;;;;;;9.81;100;95819.17;;;;
2020/10/30 04:16:33;;;;;;;1.7;1.4;;;;;;;9.81;100;95820.93;;;;
2020/10/30 04:17:38;;;;;;;1.7;1.4;;;;;;;9.81;100;95820.93;;;;
2020/10/30 04:19:06;;;;;;;1.7;1.4;;;;;;;9.81;100;95820.93;;;;
2020/10/30 04:20:11;;;;;;;1.7;1.4;;;;;;;9.81;100;95820.93;;;;
2020/10/30 04:21:27;;;;;;;1.7;1.4;;;;;;;9.81;100;95820.93;;;;
2020/10/30 04:22:28;;;;;;;1.7;1.4;;;;;;;9.81;100;95820.93;;;;
2020/10/30 04:23:28;;;;;;;1.7;1.4;;;;;;;9.81;100;95820.93;;;;
2020/10/30 04:24:29;;;;;;;1.7;1.4;;;;;;;9.81;100;95820.93;;;;
2020/10/30 04:25:29;;;;;;;1.7;1.4;;;;;;;9.81;100;95820.93;;;;
2020/10/30 04:26:30;;;;;;;1.7;1.4;;;;;;;9.81;100;95820.93;;;;
2020/10/30 04:27:30;;;;;;;2.35;1.3;;;;;;;9.92;100;95836;;;;
2020/10/30 04:28:31;;;;;;;2.35;1.3;;;;;;;9.92;100;95836;;;;
2020/10/30 04:29:32;;;;;;;2.35;1.3;;;;;;;9.92;100;95836;;;;
2020/10/30 04:30:33;;;;;;;2.35;1.3;;;;;;;9.92;100;95836;;;;
2020/10/30 04:31:33;;;;;;;2.35;1.3;;;;;;;9.92;100;95836;;;;
2020/10/30 04:32:34;;;;;;;2.35;1.3;;;;;;;9.92;100;95836;;;;
2020/10/30 04:33:40;;;;;;;2.35;1.3;;;;;;;9.92;100;95836;;;;
2020/10/30 04:34:41;;;;;;;2.35;1.3;;;;;;;9.92;100;95836;;;;
2020/10/30 04:35:47;;;;;;;2.35;1.3;;;;;;;9.92;100;95836;;;;
2020/10/30 04:37:19;;;;;;;2.35;1.3;;;;;;;9.92;100;95836;;;;
2020/10/30 04:38:29;;;;;;;1.5;1.35;;;;;;;9.93;100;95853.31;;;;
2020/10/30 04:40:01;;;;;;;1.5;1.35;;;;;;;9.93;100;95853.31;;;;
2020/10/30 04:41:12;;;;;;;1.5;1.35;;;;;;;9.93;100;95853.31;;;;
2020/10/30 04:42:21;;;;;;;1.5;1.35;;;;;;;9.93;100;95853.31;;;;
2020/10/30 04:45:03;;;;;;;1.5;1.35;;;;;;;9.93;100;95853.31;;;;
2020/10/30 04:56:19;;;;;;;1.5;1.35;;;;;;;9.93;100;95853.31;;;;
2020/10/30 04:57:59;;;;;;;2.750001;1.5;;;;;;;9.98;100;95829.22;;;;
2020/10/30 04:59:07;;;;;;;3;1.45;;;;;;;9.94;100;95820.42;;;;
2020/10/30 05:00:22;;;;;;;3;1.45;;;;;;;9.94;100;95820.42;;;;
2020/10/30 05:01:30;;;;;;;3;1.45;;;;;;;9.94;100;95820.42;;;;
2020/10/30 05:02:38;;;;;;;3;1.45;;;;;;;9.94;100;95820.42;;;;
2020/10/30 05:04:09;;;;;;;3;1.45;;;;;;;9.94;100;95820.42;;;;
2020/10/30 05:05:11;;;;;;;3;1.45;;;;;;;9.94;100;95820.42;;;;
2020/10/30 05:06:19;;;;;;;3;1.45;;;;;;;9.94;100;95820.42;;;;
2020/10/30 05:07:19;;;;;;;3;1.45;;;;;;;9.94;100;95820.42;;;;
2020/10/30 05:08:24;;;;;;;3;1.45;;;;;;;9.94;100;95820.42;;;;
2020/10/30 05:09:25;;;;;;;3;1.45;;;;;;;9.94;100;95820.42;;;;
2020/10/30 05:10:31;;;;;;;1.75;1.4;;;;;;;9.96;100;95827.69;;;;
2020/10/30 05:11:32;;;;;;;1.75;1.4;;;;;;;9.96;100;95827.69;;;;
2020/10/30 05:12:35;;;;;;;1.75;1.4;;;;;;;9.96;100;95827.69;;;;
2020/10/30 05:13:35;;;;;;;1.75;1.4;;;;;;;9.96;100;95827.69;;;;
2020/10/30 05:14:36;;;;;;;1.75;1.4;;;;;;;9.96;100;95827.69;;;;
2020/10/30 05:15:53;;;;;;;1.75;1.4;;;;;;;9.96;100;95827.69;;;;
2020/10/30 05:16:54;;;;;;;1.75;1.4;;;;;;;9.96;100;95827.69;;;;
2020/10/30 05:17:54;;;;;;;1.75;1.4;;;;;;;9.96;100;95827.69;;;;
2020/10/30 05:18:55;;;;;;;1.75;1.4;;;;;;;9.96;100;95827.69;;;;
2020/10/30 05:19:55;;;;;;;1.75;1.4;;;;;;;9.96;100;95827.69;;;;
2020/10/30 05:20:56;;;;;;;1.4;1.3;;;;;;;9.98;100;95820.72;;;;
2020/10/30 05:22:11;;;;;;;1.4;1.3;;;;;;;9.98;100;95820.72;;;;
2020/10/30 05:23:13;;;;;;;1.4;1.3;;;;;;;9.98;100;95820.72;;;;
2020/10/30 05:24:14;;;;;;;1.4;1.3;;;;;;;9.98;100;95820.72;;;;
2020/10/30 05:25:16;;;;;;;1.4;1.3;;;;;;;9.98;100;95820.72;;;;
2020/10/30 05:26:19;;;;;;;1.4;1.3;;;;;;;9.98;100;95820.72;;;;
2020/10/30 05:27:21;;;;;;;1.4;1.3;;;;;;;9.98;100;95820.72;;;;
2020/10/30 05:28:27;;;;;;;1.4;1.3;;;;;;;9.98;100;95820.72;;;;
2020/10/30 05:29:27;;;;;;;1.4;1.3;;;;;;;9.98;100;95820.72;;;;
2020/10/30 05:30:28;;;;;;;1.4;1.3;;;;;;;9.98;100;95820.72;;;;
2020/10/30 05:31:30;;;;;;;2.15;1.4;;;;;;;10.07;100;95832.48;;;;
2020/10/30 05:32:31;;;;;;;2.15;1.4;;;;;;;10.07;100;95832.48;;;;
2020/10/30 05:33:40;;;;;;;2.15;1.4;;;;;;;10.07;100;95832.48;;;;
2020/10/30 05:34:41;;;;;;;2.15;1.4;;;;;;;10.07;100;95832.48;;;;
2020/10/30 05:35:42;;;;;;;2.15;1.4;;;;;;;10.07;100;95832.48;;;;
2020/10/30 05:36:42;;;;;;;2.15;1.4;;;;;;;10.07;100;95832.48;;;;
2020/10/30 05:37:43;;;;;;;2.15;1.4;;;;;;;10.07;100;95832.48;;;;
2020/10/30 05:38:44;;;;;;;2.15;1.4;;;;;;;10.07;100;95832.48;;;;
2020/10/30 05:39:47;;;;;;;2.15;1.4;;;;;;;10.07;100;95832.48;;;;
2020/10/30 05:40:47;;;;;;;2.15;1.4;;;;;;;10.07;100;95832.48;;;;
2020/10/30 05:41:48;;;;;;;1.4;1.3;;;;;;;10.1;100;95831.64;;;;
2020/10/30 05:42:48;;;;;;;1.4;1.3;;;;;;;10.1;100;95831.64;;;;
2020/10/30 05:43:51;;;;;;;1.4;1.3;;;;;;;10.1;100;95831.64;;;;
2020/10/30 05:44:55;;;;;;;1.4;1.3;;;;;;;10.1;100;95831.64;;;;
2020/10/30 05:46:02;;;;;;;1.4;1.3;;;;;;;10.1;100;95831.64;;;;
2020/10/30 05:47:09;;;;;;;1.4;1.3;;;;;;;10.1;100;95831.64;;;;
2020/10/30 05:48:09;;;;;;;1.4;1.3;;;;;;;10.1;100;95831.64;;;;
2020/10/30 05:49:20;;;;;;;1.4;1.3;;;;;;;10.1;100;95831.64;;;;
2020/10/30 05:50:20;;;;;;;1.4;1.3;;;;;;;10.1;100;95831.64;;;;
2020/10/30 05:51:34;;;;;;;1.4;1.3;;;;;;;10.1;100;95831.64;;;;
2020/10/30 05:52:40;;;;;;;1.55;1.25;;;;;;;10.2;100;95852.23;;;;
2020/10/30 05:53:41;;;;;;;1.55;1.25;;;;;;;10.2;100;95852.23;;;;
2020/10/30 05:54:50;;;;;;;1.55;1.25;;;;;;;10.2;100;95852.23;;;;
2020/10/30 05:55:51;;;;;;;1.55;1.25;;;;;;;10.2;100;95852.23;;;;
2020/10/30 05:56:51;;;;;;;1.55;1.25;;;;;;;10.2;100;95852.23;;;;
2020/10/30 05:57:52;;;;;;;1.55;1.25;;;;;;;10.2;100;95852.23;;;;
2020/10/30 05:58:52;;;;;;;1.55;1.25;;;;;;;10.2;100;95852.23;;;;
2020/10/30 05:59:53;;;;;;;1.55;1.25;;;;;;;10.2;100;95852.23;;;;
2020/10/30 06:01:15;;;;;;;1.55;1.25;;;;;;;10.2;100;95852.23;;;;
2020/10/30 06:02:38;;;;;;;1.55;1.25;;;;;;;10.2;100;95852.23;;;;
2020/10/30 06:03:39;;;;;;;1.45;1.35;;;;;;;10.22;100;95874.44;;;;
2020/10/30 06:04:41;;;;;;;1.45;1.35;;;;;;;10.22;100;95874.44;;;;
2020/10/30 06:05:42;;;;;;;1.45;1.35;;;;;;;10.22;100;95874.44;;;;
2020/10/30 06:06:42;;;;;;;1.45;1.35;;;;;;;10.22;100;95874.44;;;;
2020/10/30 06:07:43;;;;;;;1.45;1.35;;;;;;;10.22;100;95874.44;;;;
2020/10/30 06:08:54;;;;;;;1.45;1.35;;;;;;;10.22;100;95874.44;;;;
2020/10/30 06:10:02;;;;;;;1.45;1.35;;;;;;;10.22;100;95874.44;;;;
2020/10/30 06:11:04;;;;;;;1.45;1.35;;;;;;;10.22;100;95874.44;;;;
2020/10/30 06:12:05;;;;;;;1.45;1.35;;;;;;;10.22;100;95874.44;;;;
2020/10/30 06:13:07;;;;;;;1.45;1.35;;;;;;;10.22;100;95874.44;;;;
2020/10/30 06:14:26;;;;;;;1.3;1.15;;;;;;;10.29;100;95878.71;;;;
2020/10/30 06:15:28;;;;;;;1.3;1.15;;;;;;;10.29;100;95878.71;;;;
2020/10/30 06:16:39;;;;;;;1.3;1.15;;;;;;;10.29;100;95878.71;;;;
2020/10/30 06:17:39;;;;;;;1.3;1.15;;;;;;;10.29;100;95878.71;;;;
2020/10/30 06:18:40;;;;;;;1.3;1.15;;;;;;;10.29;100;95878.71;;;;
2020/10/30 06:19:41;;;;;;;1.3;1.15;;;;;;;10.29;100;95878.71;;;;
2020/10/30 06:20:45;;;;;;;1.3;1.15;;;;;;;10.29;100;95878.71;;;;
2020/10/30 06:21:47;;;;;;;1.3;1.15;;;;;;;10.29;100;95878.71;;;;
2020/10/30 06:22:47;;;;;;;1.3;1.15;;;;;;;10.29;100;95878.71;;;;
2020/10/30 06:23:48;;;;;;;1.3;1.15;;;;;;;10.29;100;95878.71;;;;
2020/10/30 06:24:59;;;;;;;1.3;1.2;;;;;;;10.31;100;95880.25;;;;
2020/10/30 06:26:02;;;;;;;1.3;1.2;;;;;;;10.31;100;95880.25;;;;
2020/10/30 06:27:03;;;;;;;1.3;1.2;;;;;;;10.31;100;95880.25;;;;
2020/10/30 06:28:04;;;;;;;1.3;1.2;;;;;;;10.31;100;95880.25;;;;
2020/10/30 06:29:04;;;;;;;1.3;1.2;;;;;;;10.31;100;95880.25;;;;
2020/10/30 06:30:14;;;;;;;1.3;1.2;;;;;;;10.31;100;95880.25;;;;
2020/10/30 06:31:15;;;;;;;1.3;1.2;;;;;;;10.31;100;95880.25;;;;
2020/10/30 06:32:24;;;;;;;1.3;1.2;;;;;;;10.31;100;95880.25;;;;
2020/10/30 06:33:25;;;;;;;1.3;1.2;;;;;;;10.31;100;95880.25;;;;
2020/10/30 06:34:27;;;;;;;1.3;1.2;;;;;;;10.31;100;95880.25;;;;
2020/10/30 06:35:27;;;;;;;1.6;1.5;;;;;;;10.41;100;95908.01;;;;
2020/10/30 06:36:28;;;;;;;1.6;1.5;;;;;;;10.41;100;95908.01;;;;
2020/10/30 06:37:40;;;;;;;1.6;1.5;;;;;;;10.41;100;95908.01;;;;
2020/10/30 06:38:41;;;;;;;1.6;1.5;;;;;;;10.41;100;95908.01;;;;
2020/10/30 06:39:42;;;;;;;1.6;1.5;;;;;;;10.41;100;95908.01;;;;
2020/10/30 06:40:42;;;;;;;1.6;1.5;;;;;;;10.41;100;95908.01;;;;
2020/10/30 06:41:43;;;;;;;1.6;1.5;;;;;;;10.41;100;95908.01;;;;
2020/10/30 06:42:45;;;;;;;1.6;1.5;;;;;;;10.41;100;95908.01;;;;
2020/10/30 06:43:47;;;;;;;1.6;1.5;;;;;;;10.41;100;95908.01;;;;
2020/10/30 06:45:09;;;;;;;1.6;1.5;;;;;;;10.41;100;95908.01;;;;
2020/10/30 06:46:12;;;;;;;1.65;1.1;;;;;;;10.47;100;95922.9;;;;
2020/10/30 06:47:26;;;;;;;1.65;1.1;;;;;;;10.47;100;95922.9;;;;
2020/10/30 06:48:28;;;;;;;1.65;1.1;;;;;;;10.47;100;95922.9;;;;
2020/10/30 06:49:29;;;;;;;1.65;1.1;;;;;;;10.47;100;95922.9;;;;
2020/10/30 06:50:32;;;;;;;1.65;1.1;;;;;;;10.47;100;95922.9;;;;
2020/10/30 06:51:35;;;;;;;1.65;1.1;;;;;;;10.47;100;95922.9;;;;
2020/10/30 06:52:35;;;;;;;1.65;1.1;;;;;;;10.47;100;95922.9;;;;
2020/10/30 06:53:36;;;;;;;1.65;1.1;;;;;;;10.47;100;95922.9;;;;
2020/10/30 06:54:36;;;;;;;1.65;1.1;;;;;;;10.47;100;95922.9;;;;
2020/10/30 06:55:41;;;;;;;1.65;1.1;;;;;;;10.47;100;95922.9;;;;
2020/10/30 06:56:43;;;;;;;1.15;1.05;;;;;;;10.6;100;95912.42;;;;
2020/10/30 06:57:44;;;;;;;1.15;1.05;;;;;;;10.6;100;95912.42;;;;
2020/10/30 06:58:44;;;;;;;1.15;1.05;;;;;;;10.6;100;95912.42;;;;
2020/10/30 06:59:45;;;;;;;1.15;1.05;;;;;;;10.6;100;95912.42;;;;
2020/10/30 07:00:48;;;;;;;1.15;1.05;;;;;;;10.6;100;95912.42;;;;
2020/10/30 07:01:50;;;;;;;1.15;1.05;;;;;;;10.6;100;95912.42;;;;
2020/10/30 07:03:01;;;;;;;1.15;1.05;;;;;;;10.6;100;95912.42;;;;
2020/10/30 07:04:02;;;;;;;1.15;1.05;;;;;;;10.6;100;95912.42;;;;
2020/10/30 07:05:02;;;;;;;1.15;1.05;;;;;;;10.6;100;95912.42;;;;
2020/10/30 07:06:03;;;;;;;1.15;1.05;;;;;;;10.6;100;95912.42;;;;